Time,TemperatureF,DewpointF,PressureIn,WindDirection,WindDirectionDegrees,WindSpeedMPH,WindSpeedGustMPH,Humidity,HourlyPrecipIn,Conditions,Clouds,dailyrainin,SoftwareType,DateUTC
2013-04-27 00:08:00,38.6,31.0,30.34,SE,124,0.0,1.0,73,0.00,,,0.00,weatherlink.com 1.10,2013-04-27 04:08:00,
2013-04-27 00:23:00,37.4,30.0,30.34,ESE,123,0.0,1.0,76,0.00,,,0.00,weatherlink.com 1.10,2013-04-27 04:23:00,
2013-04-27 00:38:00,37.0,31.0,30.35,ESE,123,0.0,0.0,78,0.00,,,0.00,weatherlink.com 1.10,2013-04-27 04:38:00,
2013-04-27 00:53:00,38.2,31.0,30.35,SSE,153,0.0,2.0,74,0.00,,,0.00,weatherlink.com 1.10,2013-04-27 04:53:00,
2013-04-27 01:08:00,38.1,31.0,30.35,SSE,153,0.0,0.0,75,0.00,,,0.00,weatherlink.com 1.10,2013-04-27 05:08:00,
2013-04-27 01:23:00,37.9,31.0,30.35,SSE,153,1.0,2.0,75,0.00,,,0.00,weatherlink.com 1.10,2013-04-27 05:23:00,
2013-04-27 01:38:00,36.8,31.0,30.35,SSE,153,1.0,2.0,79,0.00,,,0.00,weatherlink.com 1.10,2013-04-27 05:38:00,
2013-04-27 01:53:00,36.1,31.0,30.34,SSE,153,0.0,2.0,80,0.00,,,0.00,weatherlink.com 1.10,2013-04-27 05:53:00,
2013-04-27 02:08:00,35.6,31.0,30.34,SSE,153,0.0,2.0,82,0.00,,,0.00,weatherlink.com 1.10,2013-04-27 06:08:00,
2013-04-27 02:23:00,35.8,31.0,30.34,SSE,153,1.0,2.0,82,0.00,,,0.00,weatherlink.com 1.10,2013-04-27 06:23:00,
2013-04-27 02:38:00,36.0,31.0,30.33,ESE,121,1.0,4.0,83,0.00,,,0.00,weatherlink.com 1.10,2013-04-27 06:38:00,
2013-04-27 02:53:00,35.9,31.0,30.33,ESE,121,0.0,1.0,82,0.00,,,0.00,weatherlink.com 1.10,2013-04-27 06:53:00,
2013-04-27 03:08:00,36.0,31.0,30.33,ESE,121,0.0,0.0,83,0.00,,,0.00,weatherlink.com 1.10,2013-04-27 07:08:00,
2013-04-27 03:23:00,35.7,31.0,30.33,ESE,121,1.0,2.0,83,0.00,,,0.00,weatherlink.com 1.10,2013-04-27 07:23:00,
2013-04-27 03:38:00,35.7,31.0,30.34,ESE,123,1.0,3.0,84,0.00,,,0.00,weatherlink.com 1.10,2013-04-27 07:38:00,
2013-04-27 03:53:00,36.1,32.0,30.33,SE,136,0.0,2.0,84,0.00,,,0.00,weatherlink.com 1.10,2013-04-27 07:53:00,
2013-04-27 04:08:00,36.3,32.0,30.34,SE,134,0.0,4.0,83,0.00,,,0.00,weatherlink.com 1.10,2013-04-27 08:08:00,
2013-04-27 04:23:00,36.2,32.0,30.34,SE,135,0.0,2.0,83,0.00,,,0.00,weatherlink.com 1.10,2013-04-27 08:23:00,
2013-04-27 04:38:00,35.9,32.0,30.33,SE,134,0.0,2.0,85,0.00,,,0.00,weatherlink.com 1.10,2013-04-27 08:38:00,
2013-04-27 04:53:00,35.8,32.0,30.33,SE,135,1.0,4.0,85,0.00,,,0.00,weatherlink.com 1.10,2013-04-27 08:53:00,
2013-04-27 05:08:00,36.0,32.0,30.33,SE,136,1.0,2.0,85,0.00,,,0.00,weatherlink.com 1.10,2013-04-27 09:08:00,
2013-04-27 05:23:00,35.8,32.0,30.32,SE,137,1.0,2.0,85,0.00,,,0.00,weatherlink.com 1.10,2013-04-27 09:23:00,
2013-04-27 05:38:00,36.0,32.0,30.32,SE,138,1.0,2.0,84,0.00,,,0.00,weatherlink.com 1.10,2013-04-27 09:38:00,
2013-04-27 05:53:00,36.1,31.0,30.32,SE,142,0.0,2.0,83,0.00,,,0.00,weatherlink.com 1.10,2013-04-27 09:53:00,
2013-04-27 06:08:00,36.0,31.0,30.32,SSE,148,0.0,2.0,82,0.00,,,0.00,weatherlink.com 1.10,2013-04-27 10:08:00,
2013-04-27 06:23:00,36.2,31.0,30.32,SSE,148,0.0,4.0,82,0.00,,,0.00,weatherlink.com 1.10,2013-04-27 10:23:00,
2013-04-27 06:38:00,37.0,31.0,30.32,SE,145,1.0,4.0,80,0.00,,,0.00,weatherlink.com 1.10,2013-04-27 10:38:00,
2013-04-27 06:53:00,38.3,32.0,30.32,SE,129,1.0,6.0,78,0.00,,,0.00,weatherlink.com 1.10,2013-04-27 10:53:00,
2013-04-27 07:08:00,39.8,32.0,30.32,SE,125,5.0,5.0,75,0.00,,,0.00,weatherlink.com 1.10,2013-04-27 11:08:00,
2013-04-27 07:23:00,41.3,32.0,30.33,SE,136,0.0,5.0,70,0.00,,,0.00,weatherlink.com 1.10,2013-04-27 11:23:00,
2013-04-27 07:38:00,42.7,33.0,30.33,SE,144,3.0,5.0,68,0.00,,,0.00,weatherlink.com 1.10,2013-04-27 11:38:00,
2013-04-27 07:54:00,44.4,34.0,30.33,ESE,102,3.0,8.0,66,0.00,,,0.00,weatherlink.com 1.10,2013-04-27 11:54:00,
2013-04-27 08:09:00,46.2,34.0,30.34,SE,138,1.0,5.0,62,0.00,,,0.00,weatherlink.com 1.10,2013-04-27 12:09:00,
2013-04-27 08:24:00,46.6,34.0,30.33,SSE,149,0.0,5.0,63,0.00,,,0.00,weatherlink.com 1.10,2013-04-27 12:24:00,
2013-04-27 08:39:00,48.2,34.0,30.33,SSE,165,4.0,4.0,59,0.00,,,0.00,weatherlink.com 1.10,2013-04-27 12:39:00,
2013-04-27 08:54:00,49.9,34.0,30.33,SE,136,0.0,2.0,54,0.00,,,0.00,weatherlink.com 1.10,2013-04-27 12:54:00,
2013-04-27 09:09:00,51.2,34.0,30.33,SE,130,0.0,6.0,53,0.00,,,0.00,weatherlink.com 1.10,2013-04-27 13:09:00,
2013-04-27 09:24:00,52.3,35.0,30.33,South,171,1.0,5.0,53,0.00,,,0.00,weatherlink.com 1.10,2013-04-27 13:24:00,
2013-04-27 09:39:00,53.7,35.0,30.32,ESE,117,0.0,7.0,49,0.00,,,0.00,weatherlink.com 1.10,2013-04-27 13:39:00,
2013-04-27 09:54:00,54.8,37.0,30.32,SSW,196,2.0,5.0,51,0.00,,,0.00,weatherlink.com 1.10,2013-04-27 13:54:00,
2013-04-27 10:09:00,53.7,36.0,30.32,SSW,206,0.0,5.0,52,0.00,,,0.00,weatherlink.com 1.10,2013-04-27 14:09:00,
2013-04-27 10:24:00,54.4,35.0,30.31,SSW,211,0.0,6.0,49,0.00,,,0.00,weatherlink.com 1.10,2013-04-27 14:24:00,
2013-04-27 10:39:00,54.9,34.0,30.31,SW,230,2.0,8.0,45,0.00,,,0.00,weatherlink.com 1.10,2013-04-27 14:39:00,
2013-04-27 10:54:00,55.0,33.0,30.31,SW,234,0.0,10.0,44,0.00,,,0.00,weatherlink.com 1.10,2013-04-27 14:54:00,
2013-04-27 11:09:00,56.9,35.0,30.31,SW,221,0.0,6.0,44,0.00,,,0.00,weatherlink.com 1.10,2013-04-27 15:09:00,
2013-04-27 11:24:00,57.0,36.0,30.31,SW,221,0.0,8.0,45,0.00,,,0.00,weatherlink.com 1.10,2013-04-27 15:24:00,
2013-04-27 11:39:00,57.1,33.0,30.30,NW,304,2.0,7.0,41,0.00,,,0.00,weatherlink.com 1.10,2013-04-27 15:39:00,
2013-04-27 11:54:00,58.2,33.0,30.30,WNW,287,4.0,7.0,39,0.00,,,0.00,weatherlink.com 1.10,2013-04-27 15:54:00,
2013-04-27 12:09:00,58.2,31.0,30.30,NE,51,0.0,6.0,35,0.00,,,0.00,weatherlink.com 1.10,2013-04-27 16:09:00,
2013-04-27 12:24:00,59.2,31.0,30.29,SW,227,0.0,6.0,34,0.00,,,0.00,weatherlink.com 1.10,2013-04-27 16:24:00,
2013-04-27 12:39:00,59.7,30.0,30.29,NE,56,4.0,9.0,32,0.00,,,0.00,weatherlink.com 1.10,2013-04-27 16:39:00,
2013-04-27 12:54:00,60.8,32.0,30.28,SW,236,6.0,6.0,34,0.00,,,0.00,weatherlink.com 1.10,2013-04-27 16:54:00,
2013-04-27 13:09:00,60.2,32.0,30.27,North,11,5.0,9.0,34,0.00,,,0.00,weatherlink.com 1.10,2013-04-27 17:09:00,
2013-04-27 13:25:00,61.7,31.0,30.27,East,83,0.0,6.0,32,0.00,,,0.00,weatherlink.com 1.10,2013-04-27 17:25:00,
2013-04-27 13:40:00,64.8,35.0,30.26,ESE,109,2.0,4.0,33,0.00,,,0.00,weatherlink.com 1.10,2013-04-27 17:40:00,
2013-04-27 13:55:00,64.4,32.0,30.25,SSE,163,1.0,7.0,30,0.00,,,0.00,weatherlink.com 1.10,2013-04-27 17:55:00,
2013-04-27 14:10:00,61.9,29.0,30.25,WSW,247,0.0,10.0,29,0.00,,,0.00,weatherlink.com 1.10,2013-04-27 18:10:00,
2013-04-27 14:25:00,64.8,35.0,30.25,SSE,165,0.0,6.0,33,0.00,,,0.00,weatherlink.com 1.10,2013-04-27 18:25:00,
2013-04-27 14:40:00,64.1,31.0,30.24,NNE,26,5.0,7.0,29,0.00,,,0.00,weatherlink.com 1.10,2013-04-27 18:40:00,
2013-04-27 14:55:00,63.8,32.0,30.24,NNE,15,1.0,7.0,31,0.00,,,0.00,weatherlink.com 1.10,2013-04-27 18:55:00,
2013-04-27 15:10:00,66.5,36.0,30.23,SSE,148,0.0,5.0,32,0.00,,,0.00,weatherlink.com 1.10,2013-04-27 19:10:00,
2013-04-27 15:25:00,67.4,33.0,30.22,North,5,1.0,7.0,28,0.00,,,0.00,weatherlink.com 1.10,2013-04-27 19:25:00,
2013-04-27 15:40:00,65.8,33.0,30.21,North,351,4.0,8.0,30,0.00,,,0.00,weatherlink.com 1.10,2013-04-27 19:40:00,
2013-04-27 15:55:00,65.9,36.0,30.20,NNE,23,9.0,9.0,33,0.00,,,0.00,weatherlink.com 1.10,2013-04-27 19:55:00,
2013-04-27 16:10:00,64.8,35.0,30.20,NNW,329,5.0,9.0,33,0.00,,,0.00,weatherlink.com 1.10,2013-04-27 20:10:00,
2013-04-27 16:25:00,64.2,34.0,30.20,NNE,18,3.0,7.0,32,0.00,,,0.00,weatherlink.com 1.10,2013-04-27 20:25:00,
2013-04-27 16:40:00,65.1,34.0,30.19,North,355,4.0,8.0,31,0.00,,,0.00,weatherlink.com 1.10,2013-04-27 20:40:00,
2013-04-27 16:55:00,65.3,36.0,30.19,NNE,24,7.0,9.0,34,0.00,,,0.00,weatherlink.com 1.10,2013-04-27 20:55:00,
2013-04-27 17:10:00,66.0,35.0,30.18,North,355,4.0,6.0,32,0.00,,,0.00,weatherlink.com 1.10,2013-04-27 21:10:00,
2013-04-27 17:25:00,66.6,37.0,30.18,NNE,27,1.0,6.0,34,0.00,,,0.00,weatherlink.com 1.10,2013-04-27 21:25:00,
2013-04-27 17:40:00,65.6,34.0,30.18,NE,35,1.0,8.0,31,0.00,,,0.00,weatherlink.com 1.10,2013-04-27 21:40:00,
2013-04-27 17:55:00,65.4,36.0,30.18,North,11,4.0,9.0,34,0.00,,,0.00,weatherlink.com 1.10,2013-04-27 21:55:00,
2013-04-27 18:10:00,66.0,35.0,30.18,NE,55,0.0,7.0,32,0.00,,,0.00,weatherlink.com 1.10,2013-04-27 22:10:00,
2013-04-27 18:25:00,66.1,36.0,30.18,ESE,104,3.0,5.0,33,0.00,,,0.00,weatherlink.com 1.10,2013-04-27 22:25:00,
2013-04-27 18:40:00,66.3,35.0,30.17,ENE,74,5.0,5.0,32,0.00,,,0.00,weatherlink.com 1.10,2013-04-27 22:40:00,
2013-04-27 18:55:00,66.9,36.0,30.17,NE,36,3.0,6.0,32,0.00,,,0.00,weatherlink.com 1.10,2013-04-27 22:55:00,
2013-04-27 19:10:00,65.1,36.0,30.17,East,90,2.0,6.0,34,0.00,,,0.00,weatherlink.com 1.10,2013-04-27 23:10:00,
2013-04-27 19:25:00,64.0,36.0,30.16,ENE,74,3.0,5.0,35,0.00,,,0.00,weatherlink.com 1.10,2013-04-27 23:25:00,
2013-04-27 19:40:00,63.3,36.0,30.16,East,101,2.0,6.0,37,0.00,,,0.00,weatherlink.com 1.10,2013-04-27 23:40:00,
2013-04-27 19:55:00,62.0,35.0,30.16,East,98,2.0,4.0,37,0.00,,,0.00,weatherlink.com 1.10,2013-04-27 23:55:00,
2013-04-27 20:10:00,60.5,36.0,30.16,ESE,118,1.0,4.0,40,0.00,,,0.00,weatherlink.com 1.10,2013-04-28 00:10:00,
2013-04-27 20:25:00,59.2,38.0,30.16,SE,135,0.0,5.0,45,0.00,,,0.00,weatherlink.com 1.10,2013-04-28 00:25:00,
2013-04-27 20:40:00,56.8,35.0,30.16,ESE,117,2.0,5.0,45,0.00,,,0.00,weatherlink.com 1.10,2013-04-28 00:40:00,
2013-04-27 20:55:00,55.3,40.0,30.16,SE,124,0.0,2.0,56,0.00,,,0.00,weatherlink.com 1.10,2013-04-28 00:55:00,
2013-04-27 21:10:00,53.5,37.0,30.16,ESE,114,4.0,5.0,55,0.00,,,0.00,weatherlink.com 1.10,2013-04-28 01:10:00,
2013-04-27 21:25:00,55.8,37.0,30.16,SE,143,0.0,6.0,50,0.00,,,0.00,weatherlink.com 1.10,2013-04-28 01:25:00,
2013-04-27 21:40:00,54.6,37.0,30.16,SE,126,4.0,5.0,52,0.00,,,0.00,weatherlink.com 1.10,2013-04-28 01:40:00,
2013-04-27 21:55:00,54.1,38.0,30.16,SE,134,0.0,4.0,54,0.00,,,0.00,weatherlink.com 1.10,2013-04-28 01:55:00,
2013-04-27 22:10:00,53.3,37.0,30.16,SE,143,0.0,5.0,55,0.00,,,0.00,weatherlink.com 1.10,2013-04-28 02:10:00,
2013-04-27 22:25:00,53.3,38.0,30.16,SE,130,0.0,6.0,56,0.00,,,0.00,weatherlink.com 1.10,2013-04-28 02:25:00,
2013-04-27 22:40:00,53.3,36.0,30.16,SE,127,2.0,6.0,53,0.00,,,0.00,weatherlink.com 1.10,2013-04-28 02:40:00,
2013-04-27 22:55:00,52.9,36.0,30.15,SE,126,5.0,6.0,54,0.00,,,0.00,weatherlink.com 1.10,2013-04-28 02:55:00,
2013-04-27 23:10:00,52.8,36.0,30.15,SE,126,4.0,5.0,53,0.00,,,0.00,weatherlink.com 1.10,2013-04-28 03:10:00,
2013-04-27 23:25:00,52.8,37.0,30.15,SE,128,3.0,8.0,55,0.00,,,0.00,weatherlink.com 1.10,2013-04-28 03:25:00,
2013-04-27 23:40:00,52.2,37.0,30.15,ESE,123,0.0,6.0,57,0.00,,,0.00,weatherlink.com 1.10,2013-04-28 03:40:00,
2013-04-27 23:55:00,51.9,36.0,30.15,ESE,121,1.0,5.0,56,0.00,,,0.00,weatherlink.com 1.10,2013-04-28 03:55:00,